Time;durP1;ratioP1;P1;durP2;ratioP2;P2;SDS_P1;SDS_P2;PMS_P1;PMS_P2;Temp;Humidity;BMP_temperature;BMP_pressure;BME280_temperature;BME280_humidity;BME280_pressure;Samples;Min_cycle;Max_cycle;Signal;HPM_P1;HPM_P2
2022/08/06 00:00:45;;;;;;;9.28;4.70;;;26.90;99.90;;;;;;1878941;73;21171;-79
2022/08/06 00:03:17;;;;;;;8.75;4.28;;;26.90;99.90;;;;;;1859985;76;21115;-79
2022/08/06 00:05:49;;;;;;;7.90;4.15;;;26.90;99.90;;;;;;1835609;77;21142;-79
2022/08/06 00:08:22;;;;;;;8.48;3.98;;;26.90;99.90;;;;;;1880070;73;21151;-80
2022/08/06 00:10:53;;;;;;;7.85;4.47;;;26.90;99.90;;;;;;1879642;75;21608;-79
2022/08/06 00:13:24;;;;;;;8.65;4.33;;;26.90;99.90;;;;;;1865581;76;21556;-79
2022/08/06 00:15:56;;;;;;;8.23;3.98;;;26.90;99.90;;;;;;1903104;74;21253;-79
2022/08/06 00:18:28;;;;;;;11.20;4.30;;;26.90;99.90;;;;;;1853349;76;21065;-80
2022/08/06 00:20:59;;;;;;;9.10;3.70;;;26.90;99.90;;;;;;1872612;75;21192;-79
2022/08/06 00:23:32;;;;;;;9.80;4.92;;;26.90;99.90;;;;;;1868418;75;21205;-79
2022/08/06 00:26:04;;;;;;;7.90;3.65;;;26.90;99.90;;;;;;1866665;75;21137;-79
2022/08/06 00:28:36;;;;;;;6.55;3.33;;;27.00;99.90;;;;;;1885214;75;21096;-80
2022/08/06 00:31:20;;;;;;;7.50;3.72;;;27.00;99.90;;;;;;1902539;75;21669;-78
2022/08/06 00:33:51;;;;;;;7.22;3.80;;;27.00;99.90;;;;;;1897946;74;21248;-81
2022/08/06 00:36:33;;;;;;;7.17;3.75;;;27.00;99.90;;;;;;1880965;74;21648;-80
2022/08/06 00:39:17;;;;;;;6.28;3.30;;;27.10;99.90;;;;;;1892136;75;21122;-80
2022/08/06 00:41:48;;;;;;;7.62;3.40;;;27.10;99.90;;;;;;1883202;75;21127;-79
2022/08/06 00:44:19;;;;;;;7.10;4.03;;;27.00;99.90;;;;;;1889162;73;21928;-81
2022/08/06 00:46:56;;;;;;;9.70;3.17;;;27.10;99.90;;;;;;1888983;75;21198;-79
2022/08/06 00:50:02;;;;;;;8.55;2.92;;;27.10;99.90;;;;;;1890873;75;21245;-80
2022/08/06 00:52:37;;;;;;;;;;;;;;;;;;;;;
2022/08/06 00:55:41;;;;;;;;;;;;;;;;;;;;;
2022/08/06 00:58:07;;;;;;;8.45;3.27;;;27.20;99.90;;;;;;1683133;84;21267;-78
2022/08/06 01:00:40;;;;;;;6.08;2.65;;;27.30;99.90;;;;;;1680083;83;21837;-80
2022/08/06 01:03:16;;;;;;;7.20;2.85;;;27.30;99.90;;;;;;1689603;83;21630;-79
2022/08/06 01:05:45;;;;;;;6.37;3.08;;;27.30;99.90;;;;;;1677744;84;21570;-80
2022/08/06 01:08:18;;;;;;;6.58;2.90;;;27.30;99.90;;;;;;1692099;83;21200;-80
2022/08/06 01:10:54;;;;;;;7.78;3.35;;;27.40;99.90;;;;;;1695287;84;21197;-79
2022/08/06 01:13:25;;;;;;;9.03;3.70;;;27.40;99.90;;;;;;1693269;84;21137;-80
2022/08/06 01:16:00;;;;;;;7.37;3.22;;;27.40;99.90;;;;;;1680127;83;21224;-79
2022/08/06 01:18:35;;;;;;;6.87;3.50;;;27.50;99.90;;;;;;1675040;85;21176;-78
2022/08/06 01:21:09;;;;;;;6.70;2.90;;;27.60;99.90;;;;;;1778494;79;21142;-79
2022/08/06 01:23:45;;;;;;;5.12;2.50;;;27.60;99.70;;;;;;1787966;76;21201;-80
2022/08/06 01:26:19;;;;;;;5.92;2.40;;;27.70;99.70;;;;;;1796285;79;21137;-82
2022/08/06 01:28:54;;;;;;;4.22;2.37;;;27.70;99.30;;;;;;1783408;79;21174;-80
2022/08/06 01:31:27;;;;;;;5.12;2.60;;;27.70;99.00;;;;;;1789080;79;21192;-80
2022/08/06 01:34:02;;;;;;;5.60;2.50;;;27.80;99.00;;;;;;1784136;79;21182;-79
2022/08/06 01:36:37;;;;;;;6.30;2.60;;;27.80;99.10;;;;;;1871954;74;21105;-81
2022/08/06 01:39:11;;;;;;;7.67;2.70;;;27.80;99.00;;;;;;1864982;75;22546;-80
2022/08/06 01:41:46;;;;;;;5.33;2.70;;;28.00;98.90;;;;;;1878321;75;21614;-80
2022/08/06 01:44:21;;;;;;;7.92;3.08;;;28.00;98.90;;;;;;1841785;75;21186;-79
2022/08/06 01:46:54;;;;;;;6.55;2.80;;;28.00;98.70;;;;;;1890993;74;21660;-80
2022/08/06 01:49:30;;;;;;;6.80;2.67;;;28.10;98.70;;;;;;1858257;76;21154;-79
2022/08/06 01:52:05;;;;;;;4.90;2.53;;;28.20;98.80;;;;;;1862855;75;21143;-79
2022/08/06 01:54:38;;;;;;;8.78;2.90;;;28.20;98.60;;;;;;1853577;75;21061;-79
2022/08/06 01:57:12;;;;;;;8.53;2.90;;;28.20;98.40;;;;;;1882908;75;21608;-79
2022/08/06 01:59:47;;;;;;;6.17;2.98;;;28.30;98.30;;;;;;1896901;74;21175;-80
2022/08/06 02:02:24;;;;;;;6.17;2.75;;;28.30;98.50;;;;;;1901603;75;21167;-80
2022/08/06 02:04:59;;;;;;;6.35;2.77;;;28.30;98.40;;;;;;1859766;76;21453;-80
2022/08/06 02:07:33;;;;;;;10.03;2.60;;;28.40;97.90;;;;;;1888436;75;22200;-79
2022/08/06 02:10:07;;;;;;;6.78;2.42;;;28.40;97.60;;;;;;1845334;76;21248;-79
2022/08/06 02:12:41;;;;;;;4.45;2.62;;;28.40;97.50;;;;;;1856165;76;21115;-78
2022/08/06 02:15:15;;;;;;;3.47;2.12;;;28.50;97.40;;;;;;1819604;78;21134;-78
2022/08/06 02:17:51;;;;;;;7.70;2.62;;;28.60;97.30;;;;;;1893343;75;21133;-82
2022/08/06 02:20:24;;;;;;;7.62;2.37;;;28.70;97.50;;;;;;1873166;75;21706;-78
2022/08/06 02:22:59;;;;;;;7.35;2.70;;;28.80;97.20;;;;;;1864018;75;21065;-79
2022/08/06 02:25:30;;;;;;;5.35;2.45;;;28.80;97.20;;;;;;1889367;75;22081;-79
2022/08/06 02:28:04;;;;;;;4.92;2.52;;;28.90;97.10;;;;;;1883372;75;21079;-80
2022/08/06 02:30:42;;;;;;;3.87;2.15;;;29.00;96.90;;;;;;1894289;75;21126;-79
2022/08/06 02:33:15;;;;;;;6.62;2.20;;;29.00;96.70;;;;;;1897803;75;21166;-78
2022/08/06 02:35:49;;;;;;;4.22;2.17;;;29.10;96.70;;;;;;1836798;77;21205;-78
2022/08/06 02:38:23;;;;;;;8.33;2.27;;;29.20;96.20;;;;;;1873893;75;21234;-77
2022/08/06 02:40:58;;;;;;;7.17;2.65;;;29.20;96.40;;;;;;1835718;77;21601;-78
2022/08/06 02:43:31;;;;;;;4.10;2.08;;;29.20;96.20;;;;;;1830725;77;21250;-79
2022/08/06 02:46:10;;;;;;;6.12;2.52;;;29.30;96.30;;;;;;1876653;75;21123;-79
2022/08/06 02:48:48;;;;;;;5.05;2.37;;;29.30;96.00;;;;;;1881145;75;21184;-78
2022/08/06 02:51:22;;;;;;;4.60;2.22;;;29.40;96.00;;;;;;1856715;76;21354;-78
2022/08/06 02:53:56;;;;;;;5.92;2.40;;;29.40;96.00;;;;;;1889097;75;21603;-79
2022/08/06 02:56:31;;;;;;;6.37;2.55;;;29.30;95.90;;;;;;1852997;76;21104;-78
2022/08/06 02:59:05;;;;;;;4.25;1.90;;;29.40;95.90;;;;;;1897356;75;21368;-81
2022/08/06 03:01:39;;;;;;;5.53;2.58;;;29.40;96.20;;;;;;1879448;75;21242;-79
2022/08/06 03:04:14;;;;;;;4.95;1.90;;;29.40;95.80;;;;;;1877042;75;21102;-79
2022/08/06 03:06:48;;;;;;;4.92;2.00;;;29.50;95.80;;;;;;1880364;75;21208;-80
2022/08/06 03:09:22;;;;;;;5.22;2.10;;;29.50;95.10;;;;;;1854921;75;21127;-80
2022/08/06 03:11:55;;;;;;;5.62;2.35;;;29.50;95.40;;;;;;1863211;76;21171;-80
2022/08/06 03:14:28;;;;;;;10.55;2.72;;;29.50;95.30;;;;;;1874475;76;21598;-79
2022/08/06 03:17:01;;;;;;;4.30;2.25;;;29.60;95.00;;;;;;1829582;75;21194;-80
2022/08/06 03:19:33;;;;;;;5.08;2.30;;;29.60;95.40;;;;;;1888403;75;21131;-79
2022/08/06 03:22:07;;;;;;;4.90;2.15;;;29.60;95.00;;;;;;1851938;77;21143;-79
2022/08/06 03:24:42;;;;;;;4.97;2.08;;;29.70;94.70;;;;;;1890817;75;21155;-79
2022/08/06 03:27:16;;;;;;;4.22;1.80;;;29.60;94.60;;;;;;1852538;76;21191;-79
2022/08/06 03:29:51;;;;;;;5.97;2.00;;;29.70;95.00;;;;;;1839603;77;21527;-78
2022/08/06 03:32:23;;;;;;;6.58;2.20;;;29.70;95.00;;;;;;1861266;75;21289;-78
2022/08/06 03:34:57;;;;;;;4.28;1.90;;;29.70;95.00;;;;;;1870085;75;21175;-78
2022/08/06 03:37:29;;;;;;;6.62;2.17;;;29.80;94.90;;;;;;1879029;75;21107;-78
2022/08/06 03:40:03;;;;;;;4.87;2.05;;;29.80;95.00;;;;;;1876174;74;21205;-78
2022/08/06 03:42:34;;;;;;;4.20;1.90;;;29.80;94.90;;;;;;1875564;76;21116;-76
2022/08/06 03:45:07;;;;;;;7.33;2.45;;;29.80;94.70;;;;;;1872985;75;22013;-78
2022/08/06 03:47:41;;;;;;;5.08;2.22;;;29.90;94.90;;;;;;1855961;76;21626;-77
2022/08/06 03:50:16;;;;;;;4.92;2.05;;;30.10;94.10;;;;;;1861325;76;21548;-78
2022/08/06 03:52:51;;;;;;;4.12;1.80;;;30.20;94.40;;;;;;1827135;77;21123;-78
2022/08/06 03:55:24;;;;;;;4.85;1.98;;;30.40;94.20;;;;;;1870399;76;21171;-78
2022/08/06 03:58:00;;;;;;;3.33;1.73;;;30.50;94.00;;;;;;1871094;75;21162;-78
2022/08/06 04:00:34;;;;;;;6.78;1.98;;;30.50;93.70;;;;;;1892951;75;21139;-80
2022/08/06 04:03:06;;;;;;;5.00;2.25;;;30.60;93.60;;;;;;1871734;75;21109;-79
2022/08/06 04:05:38;;;;;;;6.37;2.33;;;30.60;93.00;;;;;;1889080;74;21625;-80
2022/08/06 04:08:12;;;;;;;3.50;1.80;;;30.70;92.80;;;;;;1906882;74;21872;-79
2022/08/06 04:10:48;;;;;;;3.17;1.90;;;30.80;92.70;;;;;;1894966;75;21139;-79
2022/08/06 04:13:23;;;;;;;6.95;1.80;;;30.80;92.90;;;;;;1877298;75;21097;-79
2022/08/06 04:15:56;;;;;;;4.60;2.20;;;30.90;92.90;;;;;;1886353;75;21228;-78
2022/08/06 04:18:30;;;;;;;6.60;2.40;;;30.90;93.10;;;;;;1856198;76;21180;-80
2022/08/06 04:21:04;;;;;;;3.42;1.60;;;31.00;93.50;;;;;;1890460;75;21374;-78
2022/08/06 04:23:38;;;;;;;3.95;1.92;;;31.00;92.80;;;;;;1846452;77;21232;-77
2022/08/06 04:26:13;;;;;;;5.15;2.12;;;31.00;92.80;;;;;;1889636;75;21730;-78
2022/08/06 04:28:46;;;;;;;4.72;2.20;;;30.90;92.90;;;;;;1870041;76;21608;-79
2022/08/06 04:31:20;;;;;;;3.15;1.85;;;31.00;92.80;;;;;;1872722;75;21079;-79
2022/08/06 04:33:54;;;;;;;4.40;1.92;;;31.00;93.10;;;;;;1854680;76;21119;-79
2022/08/06 04:36:26;;;;;;;5.30;2.00;;;31.10;93.00;;;;;;1876206;75;21095;-79
2022/08/06 04:38:57;;;;;;;4.20;1.85;;;31.10;92.50;;;;;;1904932;75;21109;-79
2022/08/06 04:41:28;;;;;;;7.22;2.05;;;31.20;92.30;;;;;;1851264;76;21138;-78
2022/08/06 04:44:00;;;;;;;5.78;2.25;;;31.20;93.10;;;;;;1841829;77;21218;-79
2022/08/06 04:46:34;;;;;;;5.17;2.12;;;31.30;92.80;;;;;;1805293;79;21208;-77
2022/08/06 04:49:05;;;;;;;5.97;2.40;;;31.30;92.50;;;;;;1845549;77;21161;-80
2022/08/06 04:51:39;;;;;;;3.52;1.90;;;31.40;92.10;;;;;;1827337;77;21186;-79
2022/08/06 04:54:11;;;;;;;4.92;1.92;;;31.50;92.20;;;;;;1881724;75;21552;-80
2022/08/06 04:56:44;;;;;;;4.83;1.50;;;31.50;91.60;;;;;;1852945;76;21229;-79
2022/08/06 04:59:17;;;;;;;5.15;1.60;;;31.60;91.20;;;;;;1877180;75;21104;-80
2022/08/06 05:01:48;;;;;;;3.47;1.67;;;31.70;91.20;;;;;;1862348;76;21467;-81
2022/08/06 05:04:20;;;;;;;3.27;1.42;;;31.60;90.90;;;;;;1892054;74;21146;-79
2022/08/06 05:06:52;;;;;;;2.55;1.37;;;31.50;90.90;;;;;;1889562;75;21639;-80
2022/08/06 05:09:25;;;;;;;3.98;1.98;;;31.40;91.00;;;;;;1876366;75;21084;-80
2022/08/06 05:12:00;;;;;;;5.75;1.87;;;31.30;91.90;;;;;;1893112;74;21276;-80
2022/08/06 05:14:35;;;;;;;3.92;1.90;;;31.20;92.50;;;;;;1859167;75;21098;-80
2022/08/06 05:17:07;;;;;;;3.83;1.77;;;31.20;92.60;;;;;;1891528;75;21580;-79
2022/08/06 05:19:42;;;;;;;4.08;1.80;;;31.10;92.30;;;;;;1851685;77;21226;-78
2022/08/06 05:22:16;;;;;;;4.22;1.90;;;31.10;92.30;;;;;;1853622;76;21115;-78
2022/08/06 05:24:49;;;;;;;5.28;2.02;;;31.00;92.60;;;;;;1866150;75;21128;-79
2022/08/06 05:27:22;;;;;;;5.80;1.92;;;31.00;93.20;;;;;;1852742;76;21392;-78
2022/08/06 05:29:54;;;;;;;3.85;1.85;;;30.90;93.40;;;;;;1858525;77;21269;-77
2022/08/06 05:32:25;;;;;;;6.12;1.90;;;31.00;93.40;;;;;;1855051;77;21112;-78
2022/08/06 05:34:56;;;;;;;5.78;2.15;;;31.00;93.30;;;;;;1886844;74;21186;-79
2022/08/06 05:37:27;;;;;;;4.70;1.98;;;31.00;93.10;;;;;;1856093;77;21083;-79
2022/08/06 05:40:15;;;;;;;5.05;2.17;;;31.00;93.10;;;;;;1856570;77;21700;-78
2022/08/06 05:42:48;;;;;;;5.20;2.10;;;31.10;93.00;;;;;;1872540;75;21232;-78
2022/08/06 05:45:20;;;;;;;5.75;1.90;;;31.10;93.00;;;;;;1896734;75;21630;-77
2022/08/06 05:47:54;;;;;;;5.40;1.87;;;31.00;92.80;;;;;;1848364;76;21069;-79
2022/08/06 05:50:28;;;;;;;4.90;1.87;;;31.10;92.90;;;;;;1866004;76;21128;-78
2022/08/06 05:53:01;;;;;;;6.05;2.10;;;31.00;92.70;;;;;;1879124;75;21152;-79
2022/08/06 05:55:34;;;;;;;6.40;2.05;;;31.10;92.80;;;;;;1838714;77;21104;-80
2022/08/06 05:58:09;;;;;;;5.90;2.05;;;31.00;93.00;;;;;;1836977;77;21195;-78
2022/08/06 06:00:41;;;;;;;12.18;2.58;;;30.90;93.00;;;;;;1863254;77;21140;-78
2022/08/06 06:03:15;;;;;;;5.00;2.00;;;30.90;93.10;;;;;;1863063;77;21416;-79
2022/08/06 06:05:48;;;;;;;7.97;2.08;;;30.90;93.50;;;;;;1862534;76;21736;-80
2022/08/06 06:08:21;;;;;;;6.78;2.17;;;30.90;93.40;;;;;;1845147;77;21215;-78
2022/08/06 06:10:55;;;;;;;5.28;2.42;;;31.00;93.20;;;;;;1878665;76;21155;-80
2022/08/06 06:13:30;;;;;;;6.00;1.70;;;31.10;93.20;;;;;;1901384;74;21608;-79
2022/08/06 06:16:03;;;;;;;9.15;2.35;;;31.10;93.00;;;;;;1850720;77;21119;-79
2022/08/06 06:18:36;;;;;;;5.95;2.12;;;31.20;93.10;;;;;;1888535;74;21125;-77
2022/08/06 06:21:09;;;;;;;9.95;2.55;;;31.20;92.70;;;;;;1886712;74;21143;-78
2022/08/06 06:23:44;;;;;;;6.58;1.95;;;31.30;92.80;;;;;;1937747;73;21218;-78
2022/08/06 06:26:17;;;;;;;5.08;2.33;;;31.30;92.10;;;;;;1844220;77;21093;-77
2022/08/06 06:28:49;;;;;;;6.62;2.27;;;31.40;92.40;;;;;;1841989;77;21135;-80
2022/08/06 06:31:23;;;;;;;5.78;2.00;;;31.40;92.40;;;;;;1829073;78;21071;-80
2022/08/06 06:34:01;;;;;;;5.90;2.00;;;31.50;92.20;;;;;;1853477;77;21686;-78
2022/08/06 06:36:32;;;;;;;6.65;2.20;;;31.50;92.30;;;;;;1859811;76;21609;-78
2022/08/06 06:39:05;;;;;;;5.15;2.30;;;31.50;92.60;;;;;;1866515;76;21188;-78
2022/08/06 06:41:40;;;;;;;4.62;2.37;;;31.50;92.60;;;;;;1862910;75;21120;-79
2022/08/06 06:44:14;;;;;;;4.78;1.90;;;31.50;92.70;;;;;;1893798;75;21113;-79
2022/08/06 06:46:49;;;;;;;5.72;2.17;;;31.50;92.70;;;;;;1811060;78;21088;-77
2022/08/06 06:49:26;;;;;;;4.90;1.98;;;31.50;92.00;;;;;;1858949;75;21185;-78
2022/08/06 06:52:01;;;;;;;6.20;1.80;;;31.40;91.90;;;;;;1802903;78;21906;-79
2022/08/06 06:54:36;;;;;;;6.25;2.00;;;31.40;92.00;;;;;;1871364;75;21074;-78
2022/08/06 06:57:10;;;;;;;7.35;2.47;;;31.30;92.10;;;;;;1821533;76;21156;-79
2022/08/06 06:59:44;;;;;;;8.88;2.22;;;31.20;92.50;;;;;;1820612;76;21551;-79
2022/08/06 07:02:22;;;;;;;8.25;2.20;;;31.20;92.40;;;;;;1866658;75;21413;-79
2022/08/06 07:04:56;;;;;;;8.33;2.02;;;31.10;92.80;;;;;;1866947;75;21159;-78
2022/08/06 07:07:30;;;;;;;5.37;1.80;;;31.10;92.80;;;;;;1773974;79;21579;-78
2022/08/06 07:10:02;;;;;;;4.37;2.10;;;31.10;92.90;;;;;;1846478;77;21188;-76
2022/08/06 07:12:36;;;;;;;4.92;2.20;;;31.00;92.80;;;;;;1853309;76;21167;-79
2022/08/06 07:15:13;;;;;;;6.87;2.62;;;31.00;92.80;;;;;;1830008;76;21789;-79
2022/08/06 07:17:50;;;;;;;6.60;2.58;;;31.10;93.00;;;;;;1852762;76;21219;-78
2022/08/06 07:20:24;;;;;;;5.42;2.05;;;31.10;93.00;;;;;;1854652;76;21620;-78
2022/08/06 07:22:59;;;;;;;5.40;1.67;;;31.10;92.80;;;;;;1868594;76;21124;-78
2022/08/06 07:25:35;;;;;;;6.42;2.10;;;31.10;92.60;;;;;;1846950;76;21580;-79
2022/08/06 07:28:14;;;;;;;8.30;2.40;;;31.10;92.80;;;;;;1847986;76;21171;-79
2022/08/06 07:30:47;;;;;;;7.87;2.37;;;31.10;93.20;;;;;;1840655;77;21248;-78
2022/08/06 07:33:20;;;;;;;4.40;1.80;;;31.10;93.00;;;;;;1841206;78;21209;-79
2022/08/06 07:35:54;;;;;;;5.97;2.30;;;31.10;92.80;;;;;;1870190;76;21156;-79
2022/08/06 07:38:37;;;;;;;6.37;2.50;;;31.20;93.10;;;;;;1857717;75;21202;-78
2022/08/06 07:41:11;;;;;;;7.95;2.40;;;31.20;93.20;;;;;;1868106;75;21126;-78
2022/08/06 07:43:48;;;;;;;7.37;2.30;;;31.20;92.90;;;;;;1786900;78;21249;-79
2022/08/06 07:46:50;;;;;;;5.53;1.85;;;31.20;92.70;;;;;;1831866;76;21156;-78
2022/08/06 07:49:20;;;;;;;7.50;2.42;;;31.20;92.60;;;;;;1860378;76;21617;-77
2022/08/06 07:51:56;;;;;;;5.85;2.30;;;31.10;92.80;;;;;;1839545;76;21265;-79
2022/08/06 07:54:34;;;;;;;7.12;1.80;;;31.10;92.70;;;;;;1851470;75;21622;-79
2022/08/06 07:57:14;;;;;;;6.37;2.52;;;31.10;92.90;;;;;;1864993;74;21199;-78
2022/08/06 07:59:48;;;;;;;6.10;2.35;;;31.10;92.90;;;;;;1825182;77;21217;-77
2022/08/06 08:02:25;;;;;;;4.92;1.92;;;31.00;93.00;;;;;;1840050;77;21646;-78
2022/08/06 08:07:39;;;;;;;4.65;2.35;;;31.00;92.70;;;;;;1862807;76;21154;-79
2022/08/06 08:10:35;;;;;;;7.85;2.22;;;31.00;92.80;;;;;;1851423;76;21129;-79
2022/08/06 08:13:18;;;;;;;8.05;2.30;;;31.00;92.60;;;;;;1837618;77;21145;-77
2022/08/06 08:15:52;;;;;;;5.75;1.87;;;31.10;92.70;;;;;;1845730;76;21124;-78
2022/08/06 08:18:26;;;;;;;6.75;2.10;;;31.10;92.70;;;;;;1844491;78;21168;-79
2022/08/06 08:21:03;;;;;;;5.22;2.42;;;31.10;92.30;;;;;;1844895;78;21685;-79
2022/08/06 08:23:36;;;;;;;4.05;1.80;;;31.10;92.60;;;;;;1814888;79;21643;-80
2022/08/06 08:26:09;;;;;;;5.65;2.72;;;31.00;92.80;;;;;;1838279;76;21210;-79
2022/08/06 08:28:48;;;;;;;5.65;2.05;;;31.00;93.10;;;;;;1848525;76;21622;-81
2022/08/06 08:31:21;;;;;;;7.50;2.70;;;31.00;93.00;;;;;;1850640;76;21135;-81
2022/08/06 08:33:54;;;;;;;6.55;2.02;;;31.00;93.20;;;;;;1827718;78;21232;-80
2022/08/06 08:36:25;;;;;;;5.42;2.08;;;31.00;92.90;;;;;;1858647;76;21231;-79
2022/08/06 08:39:01;;;;;;;7.35;2.20;;;31.00;93.10;;;;;;1830880;78;21653;-78
2022/08/06 08:41:35;;;;;;;4.72;2.10;;;31.00;93.10;;;;;;1854560;75;21186;-80
2022/08/06 08:44:09;;;;;;;4.45;2.02;;;31.00;93.00;;;;;;1829903;77;21210;-79
2022/08/06 08:46:43;;;;;;;6.62;2.05;;;30.90;93.20;;;;;;1835111;76;21096;-80
2022/08/06 08:49:17;;;;;;;5.85;2.85;;;30.90;93.10;;;;;;1848831;75;21784;-80
2022/08/06 08:51:51;;;;;;;6.58;2.95;;;30.90;93.60;;;;;;1845199;76;21171;-79
2022/08/06 08:54:24;;;;;;;6.42;3.12;;;30.90;94.00;;;;;;1837490;78;21726;-78
2022/08/06 08:57:14;;;;;;;7.42;2.67;;;30.70;94.20;;;;;;1841602;76;21158;-80
2022/08/06 08:59:48;;;;;;;5.35;1.92;;;30.60;94.40;;;;;;1856039;74;21136;-80
2022/08/06 09:02:20;;;;;;;7.70;2.65;;;30.50;94.60;;;;;;1844924;76;21236;-80
2022/08/06 09:04:54;;;;;;;6.72;2.58;;;30.30;94.70;;;;;;1885402;74;21199;-79
2022/08/06 09:07:28;;;;;;;7.65;2.25;;;30.20;94.80;;;;;;1877371;75;21252;-80
2022/08/06 09:10:01;;;;;;;5.30;2.10;;;30.10;94.70;;;;;;1855712;77;21892;-80
2022/08/06 09:12:33;;;;;;;6.50;2.10;;;30.00;94.50;;;;;;1894325;75;21196;-80
2022/08/06 09:15:06;;;;;;;6.58;1.98;;;30.00;94.70;;;;;;1880154;75;21137;-79
2022/08/06 09:17:38;;;;;;;4.90;1.95;;;29.90;94.70;;;;;;1907391;75;21107;-81
2022/08/06 09:20:11;;;;;;;5.12;1.80;;;29.80;95.10;;;;;;1906797;75;21128;-79
2022/08/06 09:22:49;;;;;;;5.28;2.62;;;29.80;94.60;;;;;;1906916;73;21265;-80
2022/08/06 09:25:19;;;;;;;4.62;2.47;;;29.80;94.40;;;;;;1914327;73;21157;-78
2022/08/06 09:27:51;;;;;;;5.30;2.20;;;29.80;93.90;;;;;;1899285;75;21100;-79
2022/08/06 09:30:24;;;;;;;6.85;2.67;;;29.80;93.50;;;;;;1909907;75;21086;-80
2022/08/06 09:32:56;;;;;;;5.80;2.90;;;29.80;93.50;;;;;;1898853;74;21954;-79
2022/08/06 09:35:33;;;;;;;4.45;2.40;;;29.80;93.70;;;;;;1910427;73;21213;-78
2022/08/06 09:38:09;;;;;;;5.30;2.50;;;29.90;93.60;;;;;;1907579;74;21408;-80
2022/08/06 09:40:45;;;;;;;5.22;2.95;;;29.90;94.00;;;;;;1883662;75;21198;-78
2022/08/06 09:43:18;;;;;;;7.47;2.50;;;29.90;94.20;;;;;;1894593;74;21056;-79
2022/08/06 09:45:52;;;;;;;6.30;2.60;;;29.90;94.30;;;;;;1911702;75;21150;-80
2022/08/06 09:48:26;;;;;;;3.65;1.90;;;29.90;94.50;;;;;;1909647;75;21153;-79
2022/08/06 09:50:58;;;;;;;5.53;2.55;;;30.00;94.30;;;;;;1906103;75;21103;-80
2022/08/06 09:53:30;;;;;;;4.87;2.12;;;30.00;94.20;;;;;;1893548;75;21118;-79
2022/08/06 09:56:09;;;;;;;5.70;2.45;;;30.00;94.40;;;;;;1880787;75;21224;-80
2022/08/06 09:58:38;;;;;;;4.62;2.22;;;30.00;94.20;;;;;;1900729;74;21159;-79
2022/08/06 10:01:11;;;;;;;8.03;2.05;;;30.10;94.20;;;;;;1906158;74;21212;-80
2022/08/06 10:03:44;;;;;;;5.70;2.15;;;30.10;94.10;;;;;;1949722;73;21154;-79
2022/08/06 10:06:20;;;;;;;6.47;2.15;;;30.20;94.00;;;;;;1898756;75;21130;-80
2022/08/06 10:08:55;;;;;;;5.53;1.75;;;30.20;94.00;;;;;;1912262;74;21075;-80
2022/08/06 10:11:29;;;;;;;4.75;2.00;;;30.20;94.00;;;;;;1918898;74;21701;-80
2022/08/06 10:14:02;;;;;;;4.35;1.98;;;30.30;94.00;;;;;;1935370;73;21119;-80
2022/08/06 10:16:33;;;;;;;5.03;2.30;;;30.30;94.10;;;;;;1932681;74;21551;-81
2022/08/06 10:19:08;;;;;;;7.87;2.42;;;30.30;94.20;;;;;;1939373;74;21153;-79
2022/08/06 10:21:43;;;;;;;9.25;4.08;;;30.30;94.10;;;;;;1944496;73;21625;-80
2022/08/06 10:24:15;;;;;;;12.23;6.40;;;30.30;94.00;;;;;;1944565;74;21121;-80
2022/08/06 10:26:49;;;;;;;7.65;3.75;;;30.30;94.10;;;;;;1940378;74;21137;-80
2022/08/06 10:29:21;;;;;;;7.15;3.15;;;30.30;94.10;;;;;;1945603;74;21134;-79
2022/08/06 10:31:56;;;;;;;6.30;2.70;;;30.40;94.10;;;;;;1944330;74;21155;-78
2022/08/06 10:34:28;;;;;;;8.03;2.40;;;30.40;94.20;;;;;;1947244;74;21118;-81
2022/08/06 10:37:02;;;;;;;8.18;2.45;;;30.40;94.00;;;;;;1944609;72;21056;-79
2022/08/06 10:39:38;;;;;;;7.70;2.52;;;30.40;93.90;;;;;;1945596;73;21141;-79
2022/08/06 10:42:10;;;;;;;;;;;30.40;94.00;;;;;;1961770;72;21107;-80
2022/08/06 10:44:44;;;;;;;5.47;2.47;;;30.40;94.10;;;;;;1968349;72;20133;-80
2022/08/06 10:47:16;;;;;;;11.53;3.55;;;30.40;94.20;;;;;;1942666;73;21153;-80
2022/08/06 10:49:48;;;;;;;7.12;2.90;;;30.40;94.20;;;;;;1932040;74;21229;-79
2022/08/06 10:52:21;;;;;;;15.58;3.33;;;30.30;94.20;;;;;;1934026;73;21145;-80
2022/08/06 10:54:56;;;;;;;5.53;2.77;;;30.30;94.10;;;;;;1945576;72;21134;-79
2022/08/06 10:57:28;;;;;;;7.83;2.80;;;30.40;94.20;;;;;;1947568;72;21185;-79
2022/08/06 11:00:02;;;;;;;8.05;3.60;;;30.30;94.20;;;;;;1934600;73;21160;-79
2022/08/06 11:02:37;;;;;;;7.33;2.87;;;30.30;94.30;;;;;;1943394;74;21156;-79
2022/08/06 11:05:10;;;;;;;6.58;2.72;;;30.30;94.30;;;;;;1953936;72;21628;-79
2022/08/06 11:07:43;;;;;;;8.88;3.33;;;30.30;94.30;;;;;;1936322;74;21566;-80
2022/08/06 11:10:18;;;;;;;11.85;3.90;;;30.30;94.40;;;;;;1924681;74;21121;-80
2022/08/06 11:12:55;;;;;;;8.80;2.55;;;30.30;94.50;;;;;;1938224;73;21177;-79
2022/08/06 11:15:27;;;;;;;4.83;2.67;;;30.30;94.50;;;;;;1951760;73;21129;-78
2022/08/06 11:18:02;;;;;;;8.00;2.67;;;30.30;94.50;;;;;;1957617;72;21227;-78
2022/08/06 11:20:36;;;;;;;5.72;2.85;;;30.20;94.40;;;;;;1975409;72;21574;-79
2022/08/06 11:23:07;;;;;;;7.55;3.17;;;30.30;94.60;;;;;;1942761;73;21078;-79
2022/08/06 11:25:40;;;;;;;8.75;3.27;;;30.20;94.60;;;;;;1951252;73;21200;-79
2022/08/06 11:28:15;;;;;;;9.08;3.08;;;30.20;94.70;;;;;;1946223;73;21119;-79
2022/08/06 11:30:46;;;;;;;8.93;2.98;;;30.20;94.70;;;;;;1949714;73;21248;-79
2022/08/06 11:33:21;;;;;;;6.22;3.00;;;30.20;94.80;;;;;;1956392;72;21146;-78
2022/08/06 11:35:52;;;;;;;6.03;3.12;;;30.20;94.70;;;;;;1959918;72;21173;-78
2022/08/06 11:38:27;;;;;;;6.42;3.15;;;30.20;94.80;;;;;;1946588;72;21142;-78
2022/08/06 11:41:01;;;;;;;9.58;3.45;;;30.20;94.80;;;;;;1931457;72;21013;-78
2022/08/06 11:43:36;;;;;;;10.23;3.35;;;30.10;94.90;;;;;;1952884;72;21195;-78
2022/08/06 11:46:11;;;;;;;6.45;3.27;;;30.10;95.00;;;;;;1954262;72;21125;-79
2022/08/06 11:48:45;;;;;;;7.87;3.90;;;30.10;95.00;;;;;;1940736;73;21162;-80
2022/08/06 11:51:21;;;;;;;7.78;3.33;;;30.10;95.10;;;;;;1946753;73;21174;-80
2022/08/06 11:53:55;;;;;;;10.95;4.08;;;30.10;95.10;;;;;;1949847;73;21090;-80
2022/08/06 11:56:26;;;;;;;10.85;4.75;;;30.00;95.10;;;;;;1950192;73;21074;-80
2022/08/06 11:58:59;;;;;;;10.85;4.00;;;30.00;95.20;;;;;;1951886;73;21110;-78
2022/08/06 12:01:33;;;;;;;7.85;3.67;;;30.00;95.30;;;;;;1938279;72;21219;-80
2022/08/06 12:04:23;;;;;;;9.63;4.83;;;30.00;95.30;;;;;;1916489;73;21149;-79
2022/08/06 12:07:10;;;;;;;10.15;4.15;;;30.00;95.40;;;;;;1918559;74;21176;-80
2022/08/06 12:10:06;;;;;;;10.80;5.65;;;30.00;95.50;;;;;;1899540;74;21107;-80
2022/08/06 12:12:42;;;;;;;10.65;5.58;;;30.00;95.60;;;;;;1854587;75;21757;-80
2022/08/06 12:15:12;;;;;;;11.75;5.40;;;30.00;95.80;;;;;;1872360;75;21106;-79
2022/08/06 12:17:49;;;;;;;10.32;5.50;;;30.00;95.70;;;;;;1875582;75;21137;-79
2022/08/06 12:20:27;;;;;;;10.85;6.03;;;30.00;95.60;;;;;;1876216;76;21103;-80
2022/08/06 12:23:04;;;;;;;9.03;5.58;;;30.00;95.80;;;;;;1886179;74;21160;-80
2022/08/06 12:25:38;;;;;;;11.50;5.72;;;30.00;95.80;;;;;;1875296;76;21613;-80
2022/08/06 12:28:13;;;;;;;13.08;7.50;;;30.00;95.80;;;;;;1867478;75;21543;-79
2022/08/06 12:30:48;;;;;;;14.95;8.10;;;30.00;95.90;;;;;;1879321;75;21223;-80
2022/08/06 12:33:21;;;;;;;20.40;8.88;;;30.00;96.00;;;;;;1916231;73;21193;-79
2022/08/06 12:38:34;;;;;;;14.63;7.67;;;30.00;96.20;;;;;;1885059;74;21197;-80
2022/08/06 12:41:10;;;;;;;16.50;8.90;;;30.00;96.20;;;;;;1906768;74;21167;-79
2022/08/06 12:43:45;;;;;;;18.17;8.65;;;29.90;96.30;;;;;;1878629;74;21156;-82
2022/08/06 12:46:22;;;;;;;14.40;8.50;;;29.90;96.30;;;;;;1890451;75;21696;-81
2022/08/06 12:48:52;;;;;;;;;;;29.90;96.40;;;;;;1917631;74;21225;-80
2022/08/06 12:51:35;;;;;;;17.50;7.47;;;29.90;96.30;;;;;;1904849;75;20166;-77
2022/08/06 12:54:12;;;;;;;14.73;6.78;;;29.90;96.40;;;;;;1867117;76;21281;-79
2022/08/06 12:56:46;;;;;;;11.97;6.80;;;29.90;96.40;;;;;;1839553;75;21165;-78
2022/08/06 12:59:17;;;;;;;11.03;6.25;;;29.90;96.50;;;;;;1863806;75;21523;-78
2022/08/06 13:01:50;;;;;;;12.85;5.87;;;29.90;96.60;;;;;;1909534;73;21141;-79
2022/08/06 13:04:24;;;;;;;16.57;6.25;;;29.90;96.50;;;;;;1896051;74;21103;-79
2022/08/06 13:06:58;;;;;;;11.88;6.22;;;29.90;96.50;;;;;;1874701;75;21178;-79
2022/08/06 13:09:32;;;;;;;12.85;6.72;;;29.90;96.50;;;;;;1856032;77;21126;-80
2022/08/06 13:12:07;;;;;;;13.20;6.20;;;29.90;96.60;;;;;;1855037;75;21101;-79
2022/08/06 13:14:42;;;;;;;14.75;6.85;;;29.90;96.50;;;;;;1881555;75;21093;-79
2022/08/06 13:17:14;;;;;;;11.15;6.67;;;29.90;96.60;;;;;;1881497;75;21097;-80
2022/08/06 13:19:49;;;;;;;14.30;7.85;;;29.90;96.70;;;;;;1849251;76;21656;-80
2022/08/06 13:22:21;;;;;;;13.95;7.37;;;29.90;96.60;;;;;;1889439;74;21169;-79
2022/08/06 13:24:56;;;;;;;15.13;7.12;;;29.90;96.70;;;;;;1899285;75;21121;-78
2022/08/06 13:27:30;;;;;;;11.83;6.72;;;29.90;96.70;;;;;;1868944;75;21101;-77
2022/08/06 13:30:07;;;;;;;13.65;7.85;;;29.90;96.70;;;;;;1843683;75;21171;-78